Time;durP1;ratioP1;P1;durP2;ratioP2;P2;SDS_P1;SDS_P2;PMS_P1;PMS_P2;Temp;Humidity;BMP_temperature;BMP_pressure;BME280_temperature;BME280_humidity;BME280_pressure;Samples;Min_cycle;Max_cycle;Signal;HPM_P1;HPM_P2
2022/03/23 00:00:26;;;;;;;19.12;7.18;;;;;;;;;;143743;575;46022;-67
2022/03/23 00:02:53;;;;;;;15.30;7.07;;;;;;;;;;143739;573;47019;-67
2022/03/23 00:05:20;;;;;;;12.60;6.35;;;;;;;;;;143740;585;46010;-68
2022/03/23 00:07:49;;;;;;;12.18;6.28;;;;;;;;;;143739;661;45018;-68
2022/03/23 00:10:16;;;;;;;15.02;6.72;;;;;;;;;;143742;597;45025;-67
2022/03/23 00:12:44;;;;;;;11.75;6.75;;;;;;;;;;143741;610;47018;-67
2022/03/23 00:15:12;;;;;;;10.77;6.43;;;;;;;;;;143734;579;47010;-68
2022/03/23 00:17:39;;;;;;;12.50;7.18;;;;;;;;;;143733;669;45019;-67
2022/03/23 00:20:07;;;;;;;15.98;7.28;;;;;;;;;;143741;564;47012;-67
2022/03/23 00:22:34;;;;;;;12.27;6.40;;;;;;;;;;143738;571;47018;-67
2022/03/23 00:25:01;;;;;;;11.98;6.43;;;;;;;;;;143740;642;47011;-67
2022/03/23 00:27:28;;;;;;;14.38;6.00;;;;;;;;;;143738;560;45911;-67
2022/03/23 00:29:55;;;;;;;10.95;6.53;;;;;;;;;;143743;598;46022;-67
2022/03/23 00:32:22;;;;;;;13.45;6.43;;;;;;;;;;143739;662;47019;-67
2022/03/23 00:34:49;;;;;;;12.98;6.15;;;;;;;;;;143739;567;47010;-68
2022/03/23 00:37:16;;;;;;;15.40;6.72;;;;;;;;;;143739;564;45018;-68
2022/03/23 00:39:43;;;;;;;14.75;6.95;;;;;;;;;;143742;570;46010;-67
2022/03/23 00:42:10;;;;;;;10.98;6.72;;;;;;;;;;143733;579;47018;-67
2022/03/23 00:44:37;;;;;;;13.40;6.85;;;;;;;;;;143740;646;46021;-66
2022/03/23 00:47:05;;;;;;;12.15;6.37;;;;;;;;;;143739;605;45018;-67
2022/03/23 00:49:31;;;;;;;12.50;6.22;;;;;;;;;;143744;589;45023;-67
2022/03/23 00:51:58;;;;;;;15.15;6.62;;;;;;;;;;143739;578;47020;-67
2022/03/23 00:54:26;;;;;;;11.45;6.85;;;;;;;;;;143740;617;46028;-67
2022/03/23 00:56:53;;;;;;;10.18;5.57;;;;;;;;;;143738;579;45911;-67
2022/03/23 00:59:22;;;;;;;10.25;5.50;;;;;;;;;;143740;614;46022;-67
2022/03/23 01:01:49;;;;;;;14.13;6.43;;;;;;;;;;143739;617;47020;-67
2022/03/23 01:04:16;;;;;;;11.43;6.07;;;;;;;;;;143740;586;46010;-67
2022/03/23 01:06:43;;;;;;;9.95;5.95;;;;;;;;;;143735;607;45018;-67
2022/03/23 01:09:10;;;;;;;11.18;6.12;;;;;;;;;;143744;606;45022;-67
2022/03/23 01:11:37;;;;;;;13.40;6.45;;;;;;;;;;143741;652;47018;-67
2022/03/23 01:14:06;;;;;;;10.57;6.00;;;;;;;;;;143738;565;47010;-67
2022/03/23 01:16:33;;;;;;;9.40;5.82;;;;;;;;;;143741;607;45018;-68
2022/03/23 01:19:00;;;;;;;14.48;6.45;;;;;;;;;;143743;591;46023;-67
2022/03/23 01:21:28;;;;;;;12.25;6.47;;;;;;;;;;143739;576;47018;-67
2022/03/23 01:23:55;;;;;;;11.80;5.90;;;;;;;;;;143740;595;46010;-68
2022/03/23 01:26:22;;;;;;;11.12;6.43;;;;;;;;;;143739;580;45019;-67
2022/03/23 01:28:49;;;;;;;10.95;6.45;;;;;;;;;;143742;564;45022;-67
2022/03/23 01:31:16;;;;;;;9.57;6.55;;;;;;;;;;143734;622;47018;-68
2022/03/23 01:33:43;;;;;;;13.93;6.45;;;;;;;;;;143739;654;46921;-68
2022/03/23 01:36:10;;;;;;;13.52;6.85;;;;;;;;;;143741;569;45018;-67
2022/03/23 01:38:38;;;;;;;11.88;6.35;;;;;;;;;;143742;616;46012;-69
2022/03/23 01:41:05;;;;;;;13.50;5.93;;;;;;;;;;143738;571;47019;-68
2022/03/23 01:43:33;;;;;;;13.15;7.10;;;;;;;;;;143738;647;47010;-68
2022/03/23 01:46:01;;;;;;;12.48;6.47;;;;;;;;;;143740;566;46910;-68
2022/03/23 01:48:28;;;;;;;9.55;6.28;;;;;;;;;;143745;599;45023;-68
2022/03/23 01:50:55;;;;;;;11.45;7.15;;;;;;;;;;143740;610;47020;-68
2022/03/23 01:53:22;;;;;;;13.80;6.95;;;;;;;;;;143739;577;46026;-69
2022/03/23 01:55:50;;;;;;;13.13;6.57;;;;;;;;;;143736;592;45019;-67
2022/03/23 01:58:21;;;;;;;12.00;6.87;;;;;;;;;;143744;565;46022;-69
2022/03/23 02:00:48;;;;;;;11.15;5.93;;;;;;;;;;143740;576;47018;-68
2022/03/23 02:03:15;;;;;;;14.95;7.12;;;;;;;;;;143738;590;46921;-68
2022/03/23 02:05:42;;;;;;;10.60;6.70;;;;;;;;;;143739;565;45018;-68
2022/03/23 02:08:10;;;;;;;11.48;7.20;;;;;;;;;;143743;578;45022;-68
2022/03/23 02:10:38;;;;;;;15.13;6.80;;;;;;;;;;143740;609;47019;-68
2022/03/23 02:13:05;;;;;;;12.10;6.90;;;;;;;;;;143739;573;47010;-68
2022/03/23 02:15:32;;;;;;;15.05;7.70;;;;;;;;;;143739;575;45018;-68
2022/03/23 02:17:59;;;;;;;14.75;7.03;;;;;;;;;;143743;611;46022;-68
2022/03/23 02:20:26;;;;;;;15.13;7.35;;;;;;;;;;143731;599;47018;-68
2022/03/23 02:22:54;;;;;;;16.17;7.47;;;;;;;;;;143739;606;46010;-68
2022/03/23 02:25:23;;;;;;;15.45;7.37;;;;;;;;;;143738;661;46012;-68
2022/03/23 02:27:51;;;;;;;11.35;6.95;;;;;;;;;;143744;580;46022;-69
2022/03/23 02:30:18;;;;;;;14.07;7.25;;;;;;;;;;143739;647;47020;-68
2022/03/23 02:32:46;;;;;;;10.57;6.45;;;;;;;;;;143740;597;46029;-68
2022/03/23 02:35:13;;;;;;;14.75;7.62;;;;;;;;;;143741;596;45018;-68
2022/03/23 02:37:40;;;;;;;15.23;6.97;;;;;;;;;;143743;570;46022;-68
2022/03/23 02:40:08;;;;;;;14.45;7.40;;;;;;;;;;143739;569;47020;-68
2022/03/23 02:42:37;;;;;;;11.77;7.62;;;;;;;;;;143739;630;47010;-68
2022/03/23 02:45:05;;;;;;;16.60;7.30;;;;;;;;;;143736;565;45018;-68
2022/03/23 02:47:32;;;;;;;12.27;6.97;;;;;;;;;;143744;576;45023;-68
2022/03/23 02:49:59;;;;;;;13.93;7.43;;;;;;;;;;143738;574;47018;-68
2022/03/23 02:52:28;;;;;;;16.52;7.40;;;;;;;;;;143740;610;46010;-67
2022/03/23 03:03:51;;;;;;;14.35;7.85;;;;;;;;;;143741;580;46923;-68
2022/03/23 03:06:18;;;;;;;11.50;6.95;;;;;;;;;;143741;582;45018;-68
2022/03/23 03:08:45;;;;;;;14.80;7.05;;;;;;;;;;143743;580;45022;-67
2022/03/23 03:11:12;;;;;;;13.48;7.40;;;;;;;;;;143736;576;46019;-67
2022/03/23 03:13:41;;;;;;;15.25;7.25;;;;;;;;;;143738;569;47010;-67
2022/03/23 03:16:08;;;;;;;11.80;7.43;;;;;;;;;;143739;572;46038;-68
2022/03/23 03:18:36;;;;;;;15.70;8.48;;;;;;;;;;143745;595;46021;-68
2022/03/23 03:21:10;;;;;;;17.23;7.93;;;;;;;;;;143739;594;47020;-67
2022/03/23 03:23:38;;;;;;;14.93;7.60;;;;;;;;;;143739;630;47010;-67
2022/03/23 03:26:06;;;;;;;12.02;6.60;;;;;;;;;;143744;635;45021;-67
2022/03/23 03:28:34;;;;;;;11.05;7.45;;;;;;;;;;143744;649;45020;-67
2022/03/23 03:31:04;;;;;;;14.63;8.70;;;;;;;;;;143740;592;47021;-67
2022/03/23 03:33:31;;;;;;;14.23;8.32;;;;;;;;;;143738;594;47010;-67
2022/03/23 03:35:58;;;;;;;13.98;7.80;;;;;;;;;;143737;657;45020;-67
2022/03/23 03:38:25;;;;;;;13.25;8.07;;;;;;;;;;143743;585;46020;-68
2022/03/23 03:40:52;;;;;;;10.90;7.40;;;;;;;;;;143738;569;47023;-67
2022/03/23 03:43:19;;;;;;;16.08;8.30;;;;;;;;;;143739;566;46010;-67
2022/03/23 03:45:46;;;;;;;13.38;8.18;;;;;;;;;;143740;582;45020;-67
2022/03/23 03:48:14;;;;;;;13.93;8.88;;;;;;;;;;143745;618;46021;-67
2022/03/23 03:50:42;;;;;;;16.70;8.30;;;;;;;;;;143739;570;47022;-67
2022/03/23 03:53:09;;;;;;;23.48;9.40;;;;;;;;;;143739;613;46010;-67
2022/03/23 03:55:37;;;;;;;13.38;7.55;;;;;;;;;;143740;573;46050;-68
2022/03/23 03:58:04;;;;;;;13.13;8.27;;;;;;;;;;143743;611;46020;-68
2022/03/23 04:00:34;;;;;;;12.48;8.05;;;;;;;;;;143733;579;47020;-67
2022/03/23 04:03:01;;;;;;;13.60;8.43;;;;;;;;;;143741;652;46011;-67
2022/03/23 04:05:29;;;;;;;15.35;7.90;;;;;;;;;;143738;618;45910;-68
2022/03/23 04:07:59;;;;;;;14.02;7.90;;;;;;;;;;143743;590;46020;-67
2022/03/23 04:10:27;;;;;;;13.23;7.80;;;;;;;;;;143739;564;47021;-67
2022/03/23 04:12:54;;;;;;;11.45;7.00;;;;;;;;;;143738;586;46918;-67
2022/03/23 04:15:21;;;;;;;14.73;7.97;;;;;;;;;;143740;585;45020;-67
2022/03/23 04:17:49;;;;;;;12.48;8.05;;;;;;;;;;143741;582;47012;-67
2022/03/23 04:20:16;;;;;;;12.85;7.60;;;;;;;;;;143740;564;47022;-67
2022/03/23 04:22:43;;;;;;;12.40;7.60;;;;;;;;;;143739;617;47023;-68
2022/03/23 04:25:11;;;;;;;17.70;7.37;;;;;;;;;;143738;564;45021;-67
2022/03/23 04:27:52;;;;;;;20.80;7.95;;;;;;;;;;143745;566;45020;-68
2022/03/23 04:30:20;;;;;;;10.52;7.60;;;;;;;;;;143740;570;47022;-67
2022/03/23 04:32:49;;;;;;;11.95;8.27;;;;;;;;;;143741;570;46010;-67
2022/03/23 04:35:17;;;;;;;11.98;7.95;;;;;;;;;;143741;623;45020;-68
2022/03/23 04:37:45;;;;;;;14.05;8.30;;;;;;;;;;143744;610;45020;-68
2022/03/23 04:40:14;;;;;;;10.50;7.03;;;;;;;;;;143739;622;47021;-67
2022/03/23 04:42:41;;;;;;;14.68;7.90;;;;;;;;;;143740;643;46010;-68
2022/03/23 04:45:09;;;;;;;15.50;8.32;;;;;;;;;;143742;626;45020;-67
2022/03/23 04:47:37;;;;;;;12.43;7.80;;;;;;;;;;143744;591;45021;-67
2022/03/23 04:50:06;;;;;;;12.60;7.15;;;;;;;;;;143735;614;47020;-67
2022/03/23 04:52:33;;;;;;;10.95;6.53;;;;;;;;;;143739;580;47010;-67
2022/03/23 04:55:01;;;;;;;9.93;6.80;;;;;;;;;;143740;608;45023;-67
2022/03/23 04:57:28;;;;;;;12.00;7.43;;;;;;;;;;143745;599;45020;-67
2022/03/23 04:59:58;;;;;;;17.50;7.53;;;;;;;;;;143743;660;47020;-67
2022/03/23 05:02:29;;;;;;;13.10;6.80;;;;;;;;;;143740;630;46010;-67
2022/03/23 05:04:56;;;;;;;16.83;7.40;;;;;;;;;;143743;564;45020;-68
2022/03/23 05:07:23;;;;;;;11.55;6.82;;;;;;;;;;143744;569;46020;-68
2022/03/23 05:09:50;;;;;;;15.80;7.05;;;;;;;;;;143741;663;47020;-68
2022/03/23 05:12:17;;;;;;;13.93;7.28;;;;;;;;;;143739;575;47010;-69
2022/03/23 05:14:44;;;;;;;14.50;7.60;;;;;;;;;;143738;565;45911;-68
2022/03/23 05:17:11;;;;;;;12.93;7.47;;;;;;;;;;143744;589;45021;-67
2022/03/23 05:19:38;;;;;;;16.98;7.25;;;;;;;;;;143744;623;47020;-67
2022/03/23 05:22:05;;;;;;;12.43;7.28;;;;;;;;;;143741;578;47020;-67
2022/03/23 05:24:32;;;;;;;10.82;7.37;;;;;;;;;;143738;639;46020;-68
2022/03/23 05:26:59;;;;;;;13.48;7.68;;;;;;;;;;143744;575;45020;-68
2022/03/23 05:29:27;;;;;;;21.62;7.68;;;;;;;;;;143740;619;47022;-68
2022/03/23 05:31:54;;;;;;;11.35;6.97;;;;;;;;;;143729;564;45918;-68
2022/03/23 05:34:21;;;;;;;12.68;7.03;;;;;;;;;;143742;655;45910;-67
2022/03/23 05:36:48;;;;;;;11.12;6.97;;;;;;;;;;143744;663;45020;-68
2022/03/23 05:39:15;;;;;;;11.20;7.47;;;;;;;;;;143735;622;47021;-68
2022/03/23 05:41:43;;;;;;;12.85;7.60;;;;;;;;;;143739;582;46020;-68
2022/03/23 05:44:10;;;;;;;14.38;7.18;;;;;;;;;;143740;626;45912;-68
2022/03/23 05:46:37;;;;;;;12.57;7.22;;;;;;;;;;143745;571;45019;-68
2022/03/23 05:49:04;;;;;;;13.70;8.35;;;;;;;;;;143742;582;47020;-67
2022/03/23 05:51:31;;;;;;;12.70;8.23;;;;;;;;;;143742;661;46010;-67
2022/03/23 05:53:58;;;;;;;16.80;7.95;;;;;;;;;;143740;612;46911;-67
2022/03/23 05:56:25;;;;;;;14.02;8.27;;;;;;;;;;143745;628;46020;-68
2022/03/23 05:58:53;;;;;;;15.77;7.30;;;;;;;;;;143743;564;47020;-69
2022/03/23 06:01:20;;;;;;;12.52;7.03;;;;;;;;;;143742;560;47010;-69
2022/03/23 06:03:49;;;;;;;17.95;9.10;;;;;;;;;;143738;645;45910;-68
2022/03/23 06:06:17;;;;;;;17.98;8.27;;;;;;;;;;143745;603;45020;-68
2022/03/23 06:08:44;;;;;;;12.43;7.30;;;;;;;;;;143741;625;47021;-68
2022/03/23 06:11:11;;;;;;;18.92;7.70;;;;;;;;;;143740;630;47010;-67
2022/03/23 06:13:38;;;;;;;12.80;7.32;;;;;;;;;;143740;569;45910;-68
2022/03/23 06:16:06;;;;;;;12.05;7.60;;;;;;;;;;143746;645;46020;-68
2022/03/23 06:18:33;;;;;;;15.95;8.05;;;;;;;;;;143740;587;47023;-68
2022/03/23 06:21:00;;;;;;;12.35;6.90;;;;;;;;;;143741;591;46020;-68
2022/03/23 06:23:27;;;;;;;17.50;7.47;;;;;;;;;;143742;591;45021;-68
2022/03/23 06:25:54;;;;;;;13.68;7.60;;;;;;;;;;143744;576;45021;-68
2022/03/23 06:28:23;;;;;;;11.77;7.25;;;;;;;;;;143736;581;47020;-69
2022/03/23 06:30:53;;;;;;;13.00;7.30;;;;;;;;;;143742;611;46029;-67
2022/03/23 06:33:20;;;;;;;10.70;7.78;;;;;;;;;;143740;645;45910;-68
2022/03/23 06:35:48;;;;;;;18.42;7.90;;;;;;;;;;143745;618;45020;-68
2022/03/23 06:38:15;;;;;;;8.63;6.57;;;;;;;;;;143743;564;47021;-68
2022/03/23 06:40:42;;;;;;;12.88;7.20;;;;;;;;;;143740;577;47010;-68
2022/03/23 06:43:09;;;;;;;14.15;7.35;;;;;;;;;;143740;652;45020;-68
2022/03/23 06:45:36;;;;;;;15.57;7.03;;;;;;;;;;143745;583;45021;-69
2022/03/23 06:48:03;;;;;;;25.52;12.57;;;;;;;;;;143741;659;47020;-68
2022/03/23 06:50:31;;;;;;;25.17;13.43;;;;;;;;;;143741;563;46027;-68
2022/03/23 06:52:58;;;;;;;23.17;11.60;;;;;;;;;;143736;672;45021;-67
2022/03/23 06:55:25;;;;;;;20.37;11.20;;;;;;;;;;143743;586;45021;-67
2022/03/23 06:57:52;;;;;;;20.98;11.07;;;;;;;;;;143742;582;47022;-67
2022/03/23 07:00:19;;;;;;;19.55;10.20;;;;;;;;;;143738;619;47010;-67
2022/03/23 07:02:48;;;;;;;17.73;10.27;;;;;;;;;;143739;564;45908;-67
2022/03/23 07:05:18;;;;;;;15.13;9.05;;;;;;;;;;143745;583;46020;-67
2022/03/23 07:10:31;;;;;;;25.07;9.57;;;;;;;;;;143741;647;47010;-66
2022/03/23 07:12:59;;;;;;;12.80;7.47;;;;;;;;;;143739;599;45913;-66
2022/03/23 07:15:26;;;;;;;19.98;8.77;;;;;;;;;;143743;565;46020;-66
2022/03/23 07:17:53;;;;;;;14.07;8.50;;;;;;;;;;143733;612;47023;-66
2022/03/23 07:20:20;;;;;;;11.55;7.65;;;;;;;;;;143739;597;47010;-66
2022/03/23 07:22:47;;;;;;;15.77;7.12;;;;;;;;;;143742;571;45021;-67
2022/03/23 07:25:14;;;;;;;16.00;7.93;;;;;;;;;;143743;584;45020;-67
2022/03/23 07:27:41;;;;;;;12.80;7.60;;;;;;;;;;143741;628;47020;-66
2022/03/23 07:30:09;;;;;;;12.85;6.87;;;;;;;;;;143741;619;46011;-67
2022/03/23 07:32:36;;;;;;;12.45;7.00;;;;;;;;;;143736;564;46020;-67
2022/03/23 07:35:03;;;;;;;13.93;8.02;;;;;;;;;;143744;579;46020;-66
2022/03/23 07:37:31;;;;;;;13.52;7.10;;;;;;;;;;143744;631;47021;-66
2022/03/23 07:39:58;;;;;;;11.40;7.05;;;;;;;;;;143742;590;46028;-66
2022/03/23 07:42:25;;;;;;;11.05;7.50;;;;;;;;;;143735;588;46020;-67
2022/03/23 07:44:52;;;;;;;11.65;6.80;;;;;;;;;;143744;565;45021;-66
2022/03/23 07:47:19;;;;;;;16.75;7.53;;;;;;;;;;143742;641;47020;-68
2022/03/23 07:49:46;;;;;;;11.25;7.20;;;;;;;;;;143743;606;46020;-67
2022/03/23 07:52:13;;;;;;;12.00;7.18;;;;;;;;;;143740;585;45913;-66
2022/03/23 07:54:40;;;;;;;13.90;7.55;;;;;;;;;;143746;569;46021;-67
2022/03/23 07:57:07;;;;;;;16.45;7.78;;;;;;;;;;143735;565;47022;-66
2022/03/23 07:59:34;;;;;;;15.20;7.32;;;;;;;;;;143742;617;46020;-65
2022/03/23 08:02:01;;;;;;;14.50;6.85;;;;;;;;;;143740;626;45913;-66
2022/03/23 08:04:28;;;;;;;14.52;6.70;;;;;;;;;;143745;579;45020;-66
2022/03/23 08:06:55;;;;;;;8.70;5.82;;;;;;;;;;143735;661;47021;-67
2022/03/23 08:09:22;;;;;;;9.13;5.95;;;;;;;;;;143742;575;46028;-66
2022/03/23 08:11:49;;;;;;;12.13;6.37;;;;;;;;;;143741;567;45020;-66
2022/03/23 08:14:16;;;;;;;13.68;6.62;;;;;;;;;;143744;581;46020;-66
2022/03/23 08:16:43;;;;;;;11.65;6.55;;;;;;;;;;143741;609;47021;-67
2022/03/23 08:19:10;;;;;;;10.77;6.72;;;;;;;;;;143740;577;46025;-67
2022/03/23 08:21:37;;;;;;;15.05;6.03;;;;;;;;;;143743;576;45021;-66
2022/03/23 08:24:04;;;;;;;19.80;6.72;;;;;;;;;;143745;605;46021;-66
2022/03/23 08:26:31;;;;;;;16.25;7.50;;;;;;;;;;143742;645;47020;-66
2022/03/23 08:28:58;;;;;;;14.65;6.57;;;;;;;;;;143740;588;47010;-67
2022/03/23 08:31:25;;;;;;;10.07;6.32;;;;;;;;;;143737;610;45021;-66
2022/03/23 08:33:52;;;;;;;14.45;6.50;;;;;;;;;;143744;594;45020;-66
2022/03/23 08:36:19;;;;;;;15.88;7.15;;;;;;;;;;143740;594;47021;-66
2022/03/23 08:38:46;;;;;;;13.93;6.12;;;;;;;;;;143740;613;46011;-66
2022/03/23 08:41:14;;;;;;;11.88;7.22;;;;;;;;;;143741;576;45020;-67
2022/03/23 08:43:41;;;;;;;11.32;6.25;;;;;;;;;;143736;581;46020;-68
2022/03/23 08:46:08;;;;;;;16.73;6.47;;;;;;;;;;143742;564;47021;-67
2022/03/23 08:48:36;;;;;;;12.48;7.00;;;;;;;;;;143740;564;47016;-66
2022/03/23 08:51:03;;;;;;;18.25;7.55;;;;;;;;;;143743;605;45020;-66
2022/03/23 08:53:30;;;;;;;13.20;6.80;;;;;;;;;;143745;576;45021;-68
2022/03/23 08:55:57;;;;;;;10.68;6.57;;;;;;;;;;143734;712;47022;-69
2022/03/23 08:58:24;;;;;;;11.40;6.87;;;;;;;;;;143740;627;46010;-67
2022/03/23 09:00:51;;;;;;;13.43;6.80;;;;;;;;;;143740;672;45913;-67
2022/03/23 09:03:18;;;;;;;13.50;6.75;;;;;;;;;;143745;631;45020;-68
2022/03/23 09:05:45;;;;;;;10.18;5.87;;;;;;;;;;143744;622;47020;-66
2022/03/23 09:08:12;;;;;;;10.35;5.87;;;;;;;;;;143742;569;46010;-67
2022/03/23 09:10:39;;;;;;;8.90;5.90;;;;;;;;;;143740;573;45912;-67
2022/03/23 09:13:06;;;;;;;15.20;7.18;;;;;;;;;;143744;578;45020;-68
2022/03/23 09:15:33;;;;;;;10.35;5.53;;;;;;;;;;143740;720;47022;-67
2022/03/23 09:18:02;;;;;;;10.40;6.18;;;;;;;;;;143742;585;46010;-68
2022/03/23 09:20:29;;;;;;;16.58;6.00;;;;;;;;;;143738;576;45020;-67
2022/03/23 09:22:57;;;;;;;11.45;5.85;;;;;;;;;;143742;592;46021;-67
2022/03/23 09:25:25;;;;;;;10.07;6.32;;;;;;;;;;143742;591;47020;-67
2022/03/23 09:27:53;;;;;;;23.48;6.18;;;;;;;;;;143741;637;47010;-66
2022/03/23 09:30:20;;;;;;;10.32;5.78;;;;;;;;;;143741;589;45021;-67
2022/03/23 09:32:48;;;;;;;12.55;5.45;;;;;;;;;;143743;616;46039;-67
2022/03/23 09:35:16;;;;;;;14.43;5.97;;;;;;;;;;143740;570;47018;-68
2022/03/23 09:37:50;;;;;;;8.63;4.82;;;;;;;;;;143738;566;47010;-67
2022/03/23 09:40:25;;;;;;;8.40;4.90;;;;;;;;;;143742;711;46038;-67
2022/03/23 09:42:53;;;;;;;16.75;5.53;;;;;;;;;;143743;686;45022;-67
2022/03/23 09:48:21;;;;;;;9.80;4.78;;;;;;;;;;143742;575;45921;-66
2022/03/23 09:50:54;;;;;;;15.05;5.47;;;;;;;;;;143741;570;45018;-67
2022/03/23 09:53:23;;;;;;;6.93;4.30;;;;;;;;;;143744;629;46023;-66
2022/03/23 09:55:53;;;;;;;5.53;3.78;;;;;;;;;;143740;560;47018;-66
2022/03/23 09:58:20;;;;;;;8.30;4.70;;;;;;;;;;143738;612;47020;-66
2022/03/23 10:00:48;;;;;;;9.68;4.40;;;;;;;;;;143736;613;45911;-65
2022/03/23 10:03:52;;;;;;;9.35;4.32;;;;;;;;;;143744;600;46022;-66
2022/03/23 10:07:02;;;;;;;9.68;4.15;;;;;;;;;;143741;593;47018;-66
2022/03/23 10:10:29;;;;;;;8.68;3.55;;;;;;;;;;143741;570;46022;-67
2022/03/23 10:13:43;;;;;;;9.98;4.07;;;;;;;;;;143736;597;45913;-66
2022/03/23 10:16:56;;;;;;;8.98;4.45;;;;;;;;;;143744;599;45023;-66
2022/03/23 10:19:23;;;;;;;5.32;3.22;;;;;;;;;;143740;582;47020;-66
2022/03/23 10:21:50;;;;;;;7.28;3.65;;;;;;;;;;143740;591;46011;-66
2022/03/23 10:24:37;;;;;;;6.65;3.60;;;;;;;;;;143739;610;45018;-65
2022/03/23 10:27:08;;;;;;;9.18;4.32;;;;;;;;;;143744;586;46022;-66
2022/03/23 10:29:41;;;;;;;7.90;3.10;;;;;;;;;;143739;564;47020;-66
2022/03/23 10:32:10;;;;;;;4.78;3.08;;;;;;;;;;143738;737;46010;-66
2022/03/23 10:34:42;;;;;;;7.18;3.80;;;;;;;;;;143739;575;45018;-66
2022/03/23 10:37:10;;;;;;;4.00;2.70;;;;;;;;;;143744;591;45023;-66
2022/03/23 10:39:37;;;;;;;7.82;3.58;;;;;;;;;;143732;583;47020;-67
2022/03/23 10:42:31;;;;;;;5.10;2.83;;;;;;;;;;143739;640;47010;-67
2022/03/23 10:45:17;;;;;;;5.90;3.22;;;;;;;;;;143740;569;45019;-66
2022/03/23 10:47:46;;;;;;;7.03;3.58;;;;;;;;;;143744;585;45022;-66
2022/03/23 10:50:16;;;;;;;7.15;2.95;;;;;;;;;;143740;573;47018;-66
2022/03/23 10:53:01;;;;;;;5.95;3.10;;;;;;;;;;143740;636;46029;-67
2022/03/23 10:55:30;;;;;;;4.82;2.97;;;;;;;;;;143739;591;45018;-66
2022/03/23 10:58:21;;;;;;;5.87;3.17;;;;;;;;;;143743;618;45022;-66
2022/03/23 11:00:49;;;;;;;7.12;3.22;;;;;;;;;;143739;640;47023;-66
2022/03/23 11:03:16;;;;;;;4.28;2.83;;;;;;;;;;143739;728;47010;-67
2022/03/23 11:05:46;;;;;;;5.68;2.95;;;;;;;;;;143735;577;45019;-66
2022/03/23 11:08:23;;;;;;;7.28;3.10;;;;;;;;;;143741;571;46020;-67
2022/03/23 11:17:04;;;;;;;6.70;3.47;;;;;;;;;;143741;575;47018;-67
2022/03/23 11:19:31;;;;;;;9.25;3.22;;;;;;;;;;143742;581;45022;-67
2022/03/23 11:22:09;;;;;;;8.85;3.53;;;;;;;;;;143739;593;47021;-66
2022/03/23 11:24:41;;;;;;;7.03;2.90;;;;;;;;;;143739;574;46027;-67
2022/03/23 11:27:10;;;;;;;5.03;2.97;;;;;;;;;;143740;582;45018;-66
2022/03/23 11:29:39;;;;;;;12.60;2.85;;;;;;;;;;143742;655;45023;-66
2022/03/23 11:32:13;;;;;;;8.55;3.42;;;;;;;;;;143736;577;45018;-67
2022/03/23 11:34:41;;;;;;;7.12;2.97;;;;;;;;;;143735;602;47010;-66
2022/03/23 11:37:09;;;;;;;4.22;2.70;;;;;;;;;;143741;576;45019;-67
2022/03/23 11:39:36;;;;;;;6.97;3.40;;;;;;;;;;143743;572;45022;-67
2022/03/23 11:42:05;;;;;;;6.68;2.95;;;;;;;;;;143739;594;47018;-66
2022/03/23 11:44:34;;;;;;;6.60;3.30;;;;;;;;;;143740;605;46011;-67
2022/03/23 11:47:21;;;;;;;4.57;3.12;;;;;;;;;;143737;617;45018;-66
2022/03/23 11:50:25;;;;;;;7.10;3.30;;;;;;;;;;143743;616;46022;-66
2022/03/23 11:53:24;;;;;;;6.30;3.20;;;;;;;;;;143738;688;47047;-66
2022/03/23 11:55:53;;;;;;;6.62;3.40;;;;;;;;;;143739;694;47010;-66
2022/03/23 11:58:32;;;;;;;6.70;3.50;;;;;;;;;;143735;651;45019;-66
2022/03/23 12:01:12;;;;;;;12.75;5.72;;;;;;;;;;143744;601;45023;-65
2022/03/23 12:04:03;;;;;;;9.50;4.25;;;;;;;;;;143739;579;47018;-66
2022/03/23 12:07:15;;;;;;;6.05;3.72;;;;;;;;;;143740;564;46010;-66
2022/03/23 12:09:45;;;;;;;8.73;2.78;;;;;;;;;;143741;587;45018;-65
2022/03/23 12:12:37;;;;;;;8.23;3.33;;;;;;;;;;143743;568;45022;-65
2022/03/23 12:15:27;;;;;;;6.07;3.35;;;;;;;;;;143738;647;47018;-65
2022/03/23 12:17:59;;;;;;;6.37;3.42;;;;;;;;;;143739;594;47010;-66
2022/03/23 12:20:33;;;;;;;9.35;3.47;;;;;;;;;;143741;682;45019;-66
2022/03/23 12:23:26;;;;;;;5.32;3.47;;;;;;;;;;143743;570;45023;-65
2022/03/23 12:26:37;;;;;;;7.25;2.78;;;;;;;;;;143733;575;47018;-65
2022/03/23 12:29:13;;;;;;;5.07;3.45;;;;;;;;;;143740;564;46029;-65
2022/03/23 12:31:41;;;;;;;5.05;3.40;;;;;;;;;;143741;641;45018;-65
2022/03/23 12:34:26;;;;;;;7.37;3.92;;;;;;;;;;143743;563;46022;-64
2022/03/23 12:36:57;;;;;;;5.90;3.17;;;;;;;;;;143740;579;47018;-65
2022/03/23 12:39:32;;;;;;;6.07;3.37;;;;;;;;;;143740;633;46028;-66
2022/03/23 12:42:17;;;;;;;;;;;;;;;;;;143745;983;45019;-66
2022/03/23 12:44:49;;;;;;;8.10;3.83;;;;;;;;;;143749;569;45023;-65
2022/03/23 12:47:21;;;;;;;11.98;4.07;;;;;;;;;;143741;638;47018;-66
2022/03/23 12:58:36;;;;;;;5.28;3.85;;;;;;;;;;143742;582;47018;-66
2022/03/23 13:01:11;;;;;;;5.82;3.67;;;;;;;;;;143737;567;47010;-65
2022/03/23 13:03:56;;;;;;;;;;;;;;;;;;143745;980;45019;-65
2022/03/23 13:06:36;;;;;;;8.45;3.28;;;;;;;;;;143748;581;45023;-64
2022/03/23 13:09:09;;;;;;;8.13;3.72;;;;;;;;;;143738;742;47037;-65
2022/03/23 13:11:37;;;;;;;10.05;4.45;;;;;;;;;;143740;577;46011;-65
2022/03/23 13:14:04;;;;;;;7.60;4.78;;;;;;;;;;143738;573;45912;-65
2022/03/23 13:16:36;;;;;;;6.85;4.40;;;;;;;;;;143743;595;46022;-65
2022/03/23 13:19:06;;;;;;;6.03;3.60;;;;;;;;;;143732;581;47020;-66
2022/03/23 13:21:35;;;;;;;6.15;3.85;;;;;;;;;;143740;585;46027;-66
2022/03/23 13:24:08;;;;;;;5.68;3.62;;;;;;;;;;143739;564;45018;-65
2022/03/23 13:26:45;;;;;;;4.45;3.37;;;;;;;;;;143742;589;46022;-65
2022/03/23 13:29:14;;;;;;;9.20;4.37;;;;;;;;;;143739;581;47018;-65
2022/03/23 13:31:42;;;;;;;6.70;3.90;;;;;;;;;;143736;598;47010;-65
2022/03/23 13:34:12;;;;;;;8.15;4.47;;;;;;;;;;143739;662;45019;-66
2022/03/23 13:36:41;;;;;;;11.18;4.35;;;;;;;;;;143743;665;46023;-65
2022/03/23 13:39:13;;;;;;;6.57;3.97;;;;;;;;;;143739;589;47020;-66
2022/03/23 13:47:12;;;;;;;7.03;3.90;;;;;;;;;;143743;572;46020;-65
2022/03/23 13:49:45;;;;;;;7.05;3.67;;;;;;;;;;143739;595;47020;-65
2022/03/23 13:52:16;;;;;;;8.02;4.68;;;;;;;;;;143740;569;46010;-66
2022/03/23 13:54:43;;;;;;;7.10;4.15;;;;;;;;;;143739;675;45018;-66
2022/03/23 13:57:10;;;;;;;6.05;4.37;;;;;;;;;;143743;608;45023;-66
2022/03/23 13:59:37;;;;;;;9.38;4.10;;;;;;;;;;143739;597;45021;-65
2022/03/23 14:02:05;;;;;;;7.50;3.50;;;;;;;;;;143739;614;46026;-66
2022/03/23 14:04:32;;;;;;;6.37;3.80;;;;;;;;;;143739;613;45019;-66
2022/03/23 14:07:00;;;;;;;6.78;3.92;;;;;;;;;;143744;573;46023;-66
2022/03/23 14:09:30;;;;;;;9.35;4.60;;;;;;;;;;143735;606;47020;-66
2022/03/23 14:12:05;;;;;;;7.10;3.95;;;;;;;;;;143738;565;47011;-66
2022/03/23 14:14:37;;;;;;;6.22;3.87;;;;;;;;;;143741;579;45018;-65
2022/03/23 14:17:24;;;;;;;9.45;4.22;;;;;;;;;;143743;563;46022;-66
2022/03/23 14:19:54;;;;;;;6.95;4.03;;;;;;;;;;143741;589;47019;-66
2022/03/23 14:22:28;;;;;;;6.87;4.00;;;;;;;;;;143740;571;46010;-65
2022/03/23 14:24:59;;;;;;;7.30;4.40;;;;;;;;;;143739;636;45018;-66
2022/03/23 14:27:36;;;;;;;6.60;4.10;;;;;;;;;;143738;569;46023;-66
2022/03/23 14:30:09;;;;;;;9.25;3.95;;;;;;;;;;143739;589;47018;-65
2022/03/23 14:32:54;;;;;;;10.88;4.00;;;;;;;;;;143740;602;46010;-66
2022/03/23 14:35:41;;;;;;;7.25;4.00;;;;;;;;;;143735;688;45019;-66
2022/03/23 14:38:14;;;;;;;9.30;4.28;;;;;;;;;;143743;598;45022;-66
2022/03/23 14:40:50;;;;;;;5.55;3.65;;;;;;;;;;143739;614;47018;-66
2022/03/23 14:43:40;;;;;;;5.62;3.72;;;;;;;;;;143740;581;46010;-65
2022/03/23 14:46:42;;;;;;;7.70;4.07;;;;;;;;;;143740;575;45018;-66
2022/03/23 14:49:14;;;;;;;7.00;4.40;;;;;;;;;;143742;570;45024;-66
2022/03/23 14:51:43;;;;;;;7.22;4.22;;;;;;;;;;143739;590;47018;-66
2022/03/23 14:54:11;;;;;;;8.40;4.78;;;;;;;;;;143739;573;46010;-65
2022/03/23 14:56:39;;;;;;;7.68;4.18;;;;;;;;;;143739;579;45019;-65
2022/03/23 14:59:06;;;;;;;8.15;3.87;;;;;;;;;;143744;575;46023;-67
2022/03/23 15:01:36;;;;;;;8.15;4.12;;;;;;;;;;143731;636;47020;-66
2022/03/23 15:04:03;;;;;;;8.07;4.12;;;;;;;;;;143740;632;46011;-66
2022/03/23 15:14:44;;;;;;;8.00;4.57;;;;;;;;;;143740;611;45919;-66
2022/03/23 15:17:12;;;;;;;11.50;3.87;;;;;;;;;;143737;588;45018;-65
2022/03/23 15:19:39;;;;;;;12.60;4.40;;;;;;;;;;143743;716;46023;-65
2022/03/23 15:22:08;;;;;;;6.70;4.35;;;;;;;;;;143739;639;46010;-65
2022/03/23 15:24:38;;;;;;;6.78;4.40;;;;;;;;;;143740;570;46028;-66
2022/03/23 15:27:05;;;;;;;8.38;3.50;;;;;;;;;;143736;583;45019;-65
2022/03/23 15:29:31;;;;;;;14.20;4.22;;;;;;;;;;143742;599;45022;-66
2022/03/23 15:31:59;;;;;;;7.60;4.12;;;;;;;;;;143740;664;47018;-65
2022/03/23 15:34:26;;;;;;;10.50;4.57;;;;;;;;;;143739;583;46010;-65
2022/03/23 15:36:55;;;;;;;9.88;4.47;;;;;;;;;;143739;684;45018;-66